createdAt,value
2019-04-30T00:02:20.359Z,10.16
2019-04-30T00:04:52.126Z,10.18
2019-04-30T00:07:24.844Z,10.16
2019-04-30T00:09:57.698Z,10.08
2019-04-30T00:12:35.361Z,10.12
2019-04-30T00:15:06.222Z,10.06
2019-04-30T00:17:40.255Z,10.04
2019-04-30T00:20:12.039Z,10.09
2019-04-30T00:22:50.328Z,10.06
2019-04-30T00:25:27.004Z,9.98
2019-04-30T00:27:53.414Z,9.99
2019-04-30T00:30:25.574Z,9.97
2019-04-30T00:32:57.249Z,10.00
2019-04-30T00:35:29.971Z,9.97
2019-04-30T00:38:02.807Z,10.02
2019-04-30T00:40:35.188Z,9.96
2019-04-30T00:43:08.985Z,9.96
2019-04-30T00:45:44.866Z,9.99
2019-04-30T00:48:22.978Z,9.98
2019-04-30T00:50:47.757Z,9.96
2019-04-30T00:53:19.515Z,9.96
2019-04-30T00:55:51.884Z,9.98
2019-04-30T00:58:30.073Z,9.99
2019-04-30T01:01:16.970Z,9.98
2019-04-30T01:03:55.879Z,9.91
2019-04-30T01:06:28.735Z,9.89
2019-04-30T01:09:05.478Z,9.94
2019-04-30T01:11:39.744Z,9.96
2019-04-30T01:14:09.824Z,9.89
2019-04-30T01:16:41.557Z,9.92
2019-04-30T01:19:27.543Z,9.96
2019-04-30T01:21:48.265Z,9.97
2019-04-30T01:24:23.592Z,10.01
2019-04-30T01:26:55.251Z,9.91
2019-04-30T01:29:32.853Z,9.97
2019-04-30T01:32:02.545Z,9.93
2019-04-30T01:34:34.275Z,9.95
2019-04-30T01:37:08.751Z,9.97
2019-04-30T01:39:40.798Z,9.98
2019-04-30T01:42:13.803Z,10.01
2019-04-30T01:44:50.372Z,10.00
2019-04-30T01:47:21.474Z,10.09
2019-04-30T01:49:55.811Z,9.99
2019-04-30T01:52:35.111Z,10.03
2019-04-30T01:55:04.513Z,9.94
2019-04-30T01:57:51.265Z,9.85
2019-04-30T02:00:44.921Z,9.88
2019-04-30T02:03:16.706Z,9.92
2019-04-30T02:05:49.895Z,9.86
2019-04-30T02:08:22.531Z,9.91
2019-04-30T02:10:54.084Z,9.88
2019-04-30T02:13:26.659Z,9.90
2019-04-30T02:15:59.908Z,9.98
2019-04-30T02:18:32.133Z,10.01
2019-04-30T02:21:04.056Z,10.03
2019-04-30T02:23:36.758Z,9.95
2019-04-30T02:26:08.836Z,10.05
2019-04-30T02:28:40.618Z,10.07
2019-04-30T02:31:12.175Z,10.16
2019-04-30T02:33:46.586Z,10.22
2019-04-30T02:36:40.056Z,10.28
2019-04-30T02:39:11.254Z,10.33
2019-04-30T02:41:44.531Z,10.38
2019-04-30T02:44:19.483Z,10.39
2019-04-30T02:46:54.169Z,10.43
2019-04-30T02:49:30.273Z,10.53
2019-04-30T02:52:03.071Z,10.53
2019-04-30T02:54:39.471Z,10.56
2019-04-30T02:57:14.160Z,10.58
2019-04-30T03:00:05.915Z,10.64
2019-04-30T03:02:39.440Z,10.63
2019-04-30T03:05:13.653Z,10.63
2019-04-30T03:07:45.725Z,10.67
2019-04-30T03:10:19.867Z,10.68
2019-04-30T03:12:51.536Z,10.69
2019-04-30T03:15:23.411Z,10.74
2019-04-30T03:18:09.893Z,10.77
2019-04-30T03:20:49.551Z,10.77
2019-04-30T03:23:21.679Z,10.82
2019-04-30T03:25:53.927Z,10.81
2019-04-30T03:28:25.573Z,10.83
2019-04-30T03:31:03.451Z,10.83
2019-04-30T03:33:32.595Z,10.79
2019-04-30T03:36:04.339Z,10.84
2019-04-30T03:38:39.616Z,10.85
2019-04-30T03:41:10.807Z,10.82
2019-04-30T03:43:42.376Z,10.84
2019-04-30T03:46:14.085Z,10.85
2019-04-30T03:48:46.301Z,10.83
2019-04-30T03:51:19.949Z,10.82
2019-04-30T03:53:51.643Z,10.84
2019-04-30T03:56:23.673Z,10.86
2019-04-30T03:58:57.050Z,10.88
2019-04-30T04:01:53.835Z,10.90
2019-04-30T04:04:40.984Z,10.88
2019-04-30T04:07:22.752Z,10.88
2019-04-30T04:10:05.865Z,10.89
2019-04-30T04:12:39.558Z,10.90
2019-04-30T04:15:11.599Z,10.85
2019-04-30T04:17:43.342Z,10.93
2019-04-30T04:20:15.185Z,10.95
2019-04-30T04:22:49.572Z,10.93
2019-04-30T04:25:21.718Z,10.96
2019-04-30T04:27:53.352Z,10.95
2019-04-30T04:30:25.075Z,10.95
2019-04-30T15:18:43.401Z,15.08
2019-04-30T15:21:16.552Z,14.98
2019-04-30T15:24:09.440Z,14.95
2019-04-30T15:26:42.012Z,14.99
2019-04-30T15:29:16.149Z,15.06
2019-04-30T15:31:47.244Z,15.11
2019-04-30T15:34:19.289Z,15.19
2019-04-30T15:36:51.182Z,15.37
2019-04-30T15:39:30.853Z,15.46
2019-04-30T15:42:02.861Z,15.43
2019-04-30T15:44:40.181Z,15.48
2019-04-30T15:47:09.385Z,15.39
2019-04-30T15:49:42.092Z,15.39
2019-04-30T15:52:13.894Z,15.20
2019-04-30T15:54:45.425Z,14.63
2019-04-30T15:57:18.832Z,14.38
2019-04-30T15:59:50.663Z,14.23
2019-04-30T16:02:35.783Z,13.97
2019-04-30T16:05:25.354Z,13.80
2019-04-30T16:08:21.745Z,13.63
2019-04-30T16:11:10.572Z,13.62
2019-04-30T16:14:18.842Z,13.54
2019-04-30T16:17:15.682Z,13.45
2019-04-30T16:19:48.479Z,13.42
2019-04-30T16:22:20.905Z,13.42
2019-04-30T16:24:54.657Z,13.37
2019-04-30T16:27:26.536Z,13.38
2019-04-30T16:29:59.470Z,13.32
2019-04-30T16:32:31.902Z,13.31
2019-04-30T16:35:03.688Z,13.36
2019-04-30T16:37:35.553Z,13.35
2019-04-30T16:40:08.325Z,13.32
2019-04-30T16:42:41.379Z,13.25
2019-04-30T16:45:13.301Z,13.28
2019-04-30T16:47:44.959Z,13.24
2019-04-30T16:50:18.711Z,13.27
2019-04-30T16:52:50.046Z,13.26
2019-04-30T16:55:21.640Z,13.28
2019-04-30T16:57:53.404Z,13.30
2019-04-30T17:00:25.331Z,13.25
2019-04-30T17:03:02.578Z,13.23
2019-04-30T17:05:40.717Z,13.24
2019-04-30T17:08:21.664Z,13.21
2019-04-30T17:11:07.301Z,13.21
2019-04-30T17:13:51.936Z,13.17
2019-04-30T17:16:24.080Z,13.11
2019-04-30T17:18:59.062Z,13.06
2019-04-30T17:21:31.341Z,13.07
2019-04-30T17:24:03.437Z,12.96
2019-04-30T17:26:35.027Z,12.98
2019-04-30T17:29:06.748Z,12.92
2019-04-30T17:31:38.413Z,12.93
2019-04-30T17:34:10.105Z,12.92
2019-04-30T17:36:42.685Z,12.84
2019-04-30T17:39:17.529Z,12.86
2019-04-30T17:41:49.693Z,12.82
2019-04-30T17:44:21.722Z,12.81
2019-04-30T17:46:53.931Z,12.68
2019-04-30T17:49:25.708Z,12.54
2019-04-30T17:51:59.194Z,12.54
2019-04-30T17:54:31.278Z,12.47
2019-04-30T17:57:03.461Z,12.43
2019-04-30T17:59:35.066Z,12.38
2019-04-30T18:02:09.787Z,12.36
2019-04-30T18:04:41.655Z,12.34
2019-04-30T18:07:13.235Z,12.28
2019-04-30T18:09:45.168Z,12.24
2019-04-30T18:12:16.872Z,12.22
2019-04-30T18:14:49.513Z,12.20
2019-04-30T18:17:22.242Z,12.13
2019-04-30T18:20:03.766Z,12.07
2019-04-30T18:22:58.931Z,12.02
2019-04-30T18:25:52.007Z,11.96
2019-04-30T18:28:25.639Z,11.78
2019-04-30T18:30:59.065Z,11.67
2019-04-30T18:33:31.101Z,11.56
2019-04-30T18:36:02.928Z,11.54
2019-04-30T18:38:34.753Z,11.49
2019-04-30T18:41:06.579Z,11.35
2019-04-30T18:43:40.563Z,11.26
2019-04-30T18:46:12.240Z,11.23
2019-04-30T18:48:44.162Z,11.23
2019-04-30T18:51:33.321Z,11.18
2019-04-30T18:53:50.991Z,11.18
2019-04-30T18:56:22.846Z,11.22
2019-04-30T18:58:54.829Z,11.20
2019-04-30T19:01:26.529Z,11.17
2019-04-30T19:04:01.061Z,11.17
2019-04-30T19:06:32.077Z,11.15
2019-04-30T19:09:29.798Z,11.13
2019-04-30T19:12:23.427Z,11.20
2019-04-30T19:15:11.070Z,11.22
2019-04-30T19:18:00.683Z,11.20
2019-04-30T19:20:38.649Z,11.21
2019-04-30T19:23:10.312Z,11.26
2019-04-30T19:25:42.639Z,11.25
2019-04-30T19:28:14.728Z,11.20
2019-04-30T19:30:55.897Z,11.19
2019-04-30T19:33:20.720Z,11.19
2019-04-30T19:35:52.654Z,11.20
2019-04-30T19:38:24.313Z,11.15
2019-04-30T19:40:56.011Z,11.18
2019-04-30T19:43:28.546Z,11.11
2019-04-30T19:46:00.549Z,11.15
2019-04-30T19:48:35.912Z,11.14
2019-04-30T19:51:08.854Z,11.16
2019-04-30T19:53:41.093Z,11.22
2019-04-30T19:56:13.208Z,11.16
2019-04-30T19:58:55.822Z,11.12
2019-04-30T20:01:19.071Z,11.12
2019-04-30T20:03:50.835Z,11.11
2019-04-30T20:06:22.716Z,11.06
2019-04-30T20:08:54.673Z,10.95
2019-04-30T20:11:26.514Z,10.81
2019-04-30T20:13:58.055Z,10.81
2019-04-30T20:16:29.718Z,10.76
2019-04-30T20:19:01.567Z,10.77
2019-04-30T20:21:45.709Z,10.73
2019-04-30T20:24:07.760Z,10.72
2019-04-30T20:26:39.540Z,10.70
2019-04-30T20:29:11.223Z,10.67
2019-04-30T20:31:43.612Z,10.62
2019-04-30T20:34:15.471Z,10.56
2019-04-30T20:36:48.236Z,10.56
2019-04-30T20:39:34.623Z,10.57
2019-04-30T20:42:06.399Z,10.57
2019-04-30T20:44:38.993Z,10.58
2019-04-30T20:47:11.154Z,10.49
2019-04-30T20:49:43.072Z,10.41
2019-04-30T20:52:15.142Z,10.39
2019-04-30T20:54:48.792Z,10.40
2019-04-30T20:57:20.346Z,10.29
2019-04-30T20:59:52.089Z,10.30
2019-04-30T21:02:24.183Z,10.27
2019-04-30T21:04:55.720Z,10.25
2019-04-30T21:07:28.247Z,10.23
2019-04-30T21:10:00.448Z,10.28
2019-04-30T21:12:33.561Z,10.29
2019-04-30T21:15:05.915Z,10.29
2019-04-30T21:17:37.831Z,10.30
2019-04-30T21:20:11.099Z,10.25
2019-04-30T21:22:42.747Z,10.22
2019-04-30T21:25:14.466Z,10.16
2019-04-30T21:27:46.102Z,10.15
2019-04-30T21:30:17.672Z,10.17
2019-04-30T21:33:03.358Z,10.14
2019-04-30T21:35:37.895Z,10.15
2019-04-30T21:38:09.592Z,10.15
2019-04-30T21:40:41.230Z,10.17
2019-04-30T21:43:12.917Z,10.17
2019-04-30T21:45:44.447Z,10.17
2019-04-30T21:48:16.010Z,10.20
2019-04-30T21:50:49.612Z,10.20
2019-04-30T21:53:20.865Z,10.21
2019-04-30T21:55:52.618Z,10.22
2019-04-30T21:58:24.158Z,10.14
2019-04-30T22:01:25.633Z,10.14
2019-04-30T22:03:57.310Z,10.10
2019-04-30T22:06:29.565Z,10.07
2019-04-30T22:09:01.504Z,10.06
2019-04-30T22:11:34.915Z,10.03
2019-04-30T22:14:06.563Z,10.01
2019-04-30T22:16:39.794Z,9.99
2019-04-30T22:19:11.489Z,10.01
2019-04-30T22:21:43.043Z,10.02
2019-04-30T22:24:14.582Z,9.98
2019-04-30T22:26:46.188Z,10.01
2019-04-30T22:29:19.158Z,10.01
2019-04-30T22:31:51.781Z,10.00
2019-04-30T22:34:23.386Z,10.03
2019-04-30T22:36:54.952Z,10.05
2019-04-30T22:39:43.158Z,10.04
2019-04-30T22:42:30.048Z,10.07
2019-04-30T22:45:04.007Z,10.04
2019-04-30T22:47:36.318Z,10.05
2019-04-30T22:50:08.922Z,10.05
2019-04-30T22:52:40.515Z,10.03
2019-04-30T22:55:12.228Z,10.06
2019-04-30T22:57:43.823Z,10.03
2019-04-30T23:00:19.440Z,10.06
2019-04-30T23:02:55.347Z,10.08
2019-04-30T23:05:26.920Z,10.10
2019-04-30T23:07:58.481Z,10.07
2019-04-30T23:10:30.093Z,10.04
2019-04-30T23:13:01.684Z,9.97
2019-04-30T23:15:33.189Z,9.89
2019-04-30T23:18:04.953Z,9.85
2019-04-30T23:20:36.451Z,9.83
2019-04-30T23:23:08.219Z,9.78
2019-04-30T23:25:39.728Z,9.72
2019-04-30T23:28:11.354Z,9.70
2019-04-30T23:30:43.014Z,9.64
2019-04-30T23:33:14.575Z,9.60
2019-04-30T23:35:46.839Z,9.57
2019-04-30T23:38:18.347Z,9.58
2019-04-30T23:40:52.056Z,9.58
2019-04-30T23:43:23.661Z,9.59
2019-04-30T23:45:55.491Z,9.58
2019-04-30T23:48:27.004Z,9.59
2019-04-30T23:50:58.584Z,9.53
2019-04-30T23:53:30.143Z,9.53
2019-04-30T23:56:01.967Z,9.54
2019-04-30T23:58:33.448Z,9.54
